PWSweather.com
Personal Weather Stations
Station Observations
DELHOVEN
DormagenDE 41540

DormagenDE 41540

Lat: 51.083, Lon: 6.775

Elevation: 120

Station Type: WH1080

Latest ConditionsUpdated 6:50:28 AM GMT+01:01 Friday, Mar 6, 2015
Currently Today's Max Today's Min Today's Average
Temperature 37.8°F3.2°C 37.8°F3.2°C 34.9°F1.6°C 36.7°F2.6°C
Dew Point 33.1°F0.6°C 33.1°F0.6°C 27.8°F-2.3°C 30.7°F-0.7°C
Winds 0.7 mph SE1.1 kmh SE 3.1 mph SSE5.0 kmh SSE - 1.2 mph 1.9 kmh
Wind Gusts 1.6 mph2.6 kmh 4.5 mph7.2 kmh - -
Humidity 83% 83% 72% 79%
Pressure 30.66 in1038.3 mb 30.68 in1038.9 mb 30.66 in1038.3 mb -
Hour Temp Dew Point Humidity Winds Wind Gusts Pressure Precip Precip Rate Daily Precip Total
06:50 AM 37.8°F3.2°C 33.1°F0.6°C 83% 0.7 mph SE1.1 kmh SE 1.6 mph2.6 kmh 30.66 in1038.3 mb 0.00 in0.0 mm 0.00 in/hr0.0 mm/hr 0.00 in0.0 mm
06:45 AM 37.8°F3.2°C 33.1°F0.6°C 83% Calm Calm 1.6 mph2.6 kmh 30.66 in1038.3 mb 0.00 in0.0 mm 0.00 in/hr0.0 mm/hr 0.00 in0.0 mm
06:40 AM 37.8°F3.2°C 33.1°F0.6°C 83% Calm Calm 0.7 mph1.1 kmh 30.67 in1038.6 mb 0.00 in0.0 mm 0.00 in/hr0.0 mm/hr 0.00 in0.0 mm
06:35 AM 37.8°F3.2°C 33.1°F0.6°C 83% Calm Calm 1.6 mph2.6 kmh 30.67 in1038.6 mb 0.00 in0.0 mm 0.00 in/hr0.0 mm/hr 0.00 in0.0 mm
06:30 AM 37.8°F3.2°C 33.1°F0.6°C 83% Calm Calm 1.6 mph2.6 kmh 30.67 in1038.6 mb 0.00 in0.0 mm 0.00 in/hr0.0 mm/hr 0.00 in0.0 mm
06:25 AM 37.8°F3.2°C 33.1°F0.6°C 83% Calm Calm 0.7 mph1.1 kmh 30.67 in1038.6 mb 0.00 in0.0 mm 0.00 in/hr0.0 mm/hr 0.00 in0.0 mm
06:20 AM 37.8°F3.2°C 33.1°F0.6°C 83% Calm Calm 1.6 mph2.6 kmh 30.66 in1038.3 mb 0.00 in0.0 mm 0.00 in/hr0.0 mm/hr 0.00 in0.0 mm
06:15 AM 37.8°F3.2°C 33.1°F0.6°C 83% 0.7 mph SE1.1 kmh SE 1.6 mph2.6 kmh 30.67 in1038.6 mb 0.00 in0.0 mm 0.00 in/hr0.0 mm/hr 0.00 in0.0 mm
06:10 AM 37.8°F3.2°C 33.1°F0.6°C 83% Calm Calm 0.7 mph1.1 kmh 30.67 in1038.6 mb 0.00 in0.0 mm 0.00 in/hr0.0 mm/hr 0.00 in0.0 mm
06:05 AM 37.6°F3.1°C 32.9°F0.5°C 83% 0.7 mph W1.1 kmh W 3.1 mph5.0 kmh 30.66 in1038.3 mb 0.00 in0.0 mm 0.00 in/hr0.0 mm/hr 0.00 in0.0 mm
06:00 AM 37.6°F3.1°C 32.9°F0.5°C 83% 0.7 mph W1.1 kmh W 3.1 mph5.0 kmh 30.67 in1038.6 mb 0.00 in0.0 mm 0.00 in/hr0.0 mm/hr 0.00 in0.0 mm
05:55 AM 37.6°F3.1°C 32.9°F0.5°C 83% 0.7 mph S1.1 kmh S 3.1 mph5.0 kmh 30.67 in1038.6 mb 0.00 in0.0 mm 0.00 in/hr0.0 mm/hr 0.00 in0.0 mm
05:50 AM 37.6°F3.1°C 32.9°F0.5°C 83% 3.1 mph SSE5.0 kmh SSE 3.8 mph6.1 kmh 30.67 in1038.6 mb 0.00 in0.0 mm 0.00 in/hr0.0 mm/hr 0.00 in0.0 mm
05:45 AM 37.6°F3.1°C 32.9°F0.5°C 83% 1.6 mph SW2.6 kmh SW 3.1 mph5.0 kmh 30.67 in1038.6 mb 0.00 in0.0 mm 0.00 in/hr0.0 mm/hr 0.00 in0.0 mm
05:40 AM 37.6°F3.1°C 32.9°F0.5°C 83% 0.7 mph 1.1 kmh 2.2 mph3.5 kmh 30.67 in1038.6 mb 0.00 in0.0 mm 0.00 in/hr0.0 mm/hr 0.00 in0.0 mm
05:35 AM 37.6°F3.1°C 32.9°F0.5°C 83% 1.6 mph E2.6 kmh E 2.2 mph3.5 kmh 30.67 in1038.6 mb 0.00 in0.0 mm 0.00 in/hr0.0 mm/hr 0.00 in0.0 mm
05:30 AM 37.4°F3.0°C 32.7°F0.4°C 83% Calm Calm 1.6 mph2.6 kmh 30.67 in1038.6 mb 0.00 in0.0 mm 0.00 in/hr0.0 mm/hr 0.00 in0.0 mm
05:25 AM 37.4°F3.0°C 32.7°F0.4°C 83% Calm Calm 0.7 mph1.1 kmh 30.67 in1038.6 mb 0.00 in0.0 mm 0.00 in/hr0.0 mm/hr 0.00 in0.0 mm
05:20 AM 37.4°F3.0°C 32.7°F0.4°C 83% 1.6 mph S2.6 kmh S 2.2 mph3.5 kmh 30.67 in1038.6 mb 0.00 in0.0 mm 0.00 in/hr0.0 mm/hr 0.00 in0.0 mm
05:15 AM 37.4°F3.0°C 32.7°F0.4°C 83% 0.7 mph SE1.1 kmh SE 2.2 mph3.5 kmh 30.67 in1038.6 mb 0.00 in0.0 mm 0.00 in/hr0.0 mm/hr 0.00 in0.0 mm
05:10 AM 37.4°F3.0°C 32.7°F0.4°C 83% Calm Calm 1.6 mph2.6 kmh 30.67 in1038.6 mb 0.00 in0.0 mm 0.00 in/hr0.0 mm/hr 0.00 in0.0 mm
05:05 AM 37.4°F3.0°C 32.7°F0.4°C 83% 2.2 mph E3.5 kmh E 3.8 mph6.1 kmh 30.66 in1038.3 mb 0.00 in0.0 mm 0.00 in/hr0.0 mm/hr 0.00 in0.0 mm
05:00 AM 37.4°F3.0°C 32.7°F0.4°C 83% 1.6 mph E2.6 kmh E 2.2 mph3.5 kmh 30.66 in1038.3 mb 0.00 in0.0 mm 0.00 in/hr0.0 mm/hr 0.00 in0.0 mm
04:55 AM 37.2°F2.9°C 31.3°F-0.4°C 79% 1.6 mph SE2.6 kmh SE 2.2 mph3.5 kmh 30.66 in1038.3 mb 0.00 in0.0 mm 0.00 in/hr0.0 mm/hr 0.00 in0.0 mm
04:50 AM 37.2°F2.9°C 31.0°F-0.6°C 78% 0.7 mph S1.1 kmh S 1.6 mph2.6 kmh 30.66 in1038.3 mb 0.00 in0.0 mm 0.00 in/hr0.0 mm/hr 0.00 in0.0 mm
04:45 AM 37.2°F2.9°C 31.0°F-0.6°C 78% 1.6 mph SE2.6 kmh SE 3.1 mph5.0 kmh 30.66 in1038.3 mb 0.00 in0.0 mm 0.00 in/hr0.0 mm/hr 0.00 in0.0 mm
04:40 AM 37.2°F2.9°C 31.0°F-0.6°C 78% 1.6 mph SW2.6 kmh SW 3.8 mph6.1 kmh 30.66 in1038.3 mb 0.00 in0.0 mm 0.00 in/hr0.0 mm/hr 0.00 in0.0 mm
04:35 AM 37.2°F2.9°C 31.0°F-0.6°C 78% Calm Calm 1.6 mph2.6 kmh 30.67 in1038.6 mb 0.00 in0.0 mm 0.00 in/hr0.0 mm/hr 0.00 in0.0 mm
04:30 AM 37.2°F2.9°C 31.0°F-0.6°C 78% 0.7 mph SE1.1 kmh SE 2.2 mph3.5 kmh 30.67 in1038.6 mb 0.00 in0.0 mm 0.00 in/hr0.0 mm/hr 0.00 in0.0 mm
04:25 AM 37.2°F2.9°C 31.0°F-0.6°C 78% 0.7 mph SE1.1 kmh SE 2.2 mph3.5 kmh 30.66 in1038.3 mb 0.00 in0.0 mm 0.00 in/hr0.0 mm/hr 0.00 in0.0 mm
04:20 AM 37.2°F2.9°C 31.0°F-0.6°C 78% 0.7 mph SE1.1 kmh SE 2.2 mph3.5 kmh 30.66 in1038.3 mb 0.00 in0.0 mm 0.00 in/hr0.0 mm/hr 0.00 in0.0 mm
04:15 AM 37.2°F2.9°C 31.0°F-0.6°C 78% 1.6 mph ESE2.6 kmh ESE 3.1 mph5.0 kmh 30.66 in1038.3 mb 0.00 in0.0 mm 0.00 in/hr0.0 mm/hr 0.00 in0.0 mm
04:10 AM 37.2°F2.9°C 31.0°F-0.6°C 78% 0.7 mph SE1.1 kmh SE 2.2 mph3.5 kmh 30.66 in1038.3 mb 0.00 in0.0 mm 0.00 in/hr0.0 mm/hr 0.00 in0.0 mm
04:05 AM 37.2°F2.9°C 31.0°F-0.6°C 78% 1.6 mph SE2.6 kmh SE 2.2 mph3.5 kmh 30.66 in1038.3 mb 0.00 in0.0 mm 0.00 in/hr0.0 mm/hr 0.00 in0.0 mm
04:00 AM 37.2°F2.9°C 31.0°F-0.6°C 78% 1.6 mph SE2.6 kmh SE 2.2 mph3.5 kmh 30.66 in1038.3 mb 0.00 in0.0 mm 0.00 in/hr0.0 mm/hr 0.00 in0.0 mm
03:55 AM 37.2°F2.9°C 31.0°F-0.6°C 78% 0.7 mph E1.1 kmh E 2.2 mph3.5 kmh 30.66 in1038.3 mb 0.00 in0.0 mm 0.00 in/hr0.0 mm/hr 0.00 in0.0 mm
03:50 AM 37.2°F2.9°C 31.0°F-0.6°C 78% 1.6 mph SE2.6 kmh SE 3.1 mph5.0 kmh 30.66 in1038.3 mb 0.00 in0.0 mm 0.00 in/hr0.0 mm/hr 0.00 in0.0 mm
03:45 AM 37.2°F2.9°C 31.0°F-0.6°C 78% 1.6 mph SE2.6 kmh SE 2.2 mph3.5 kmh 30.66 in1038.3 mb 0.00 in0.0 mm 0.00 in/hr0.0 mm/hr 0.00 in0.0 mm
03:40 AM 37.2°F2.9°C 31.0°F-0.6°C 78% 1.6 mph E2.6 kmh E 3.1 mph5.0 kmh 30.66 in1038.3 mb 0.00 in0.0 mm 0.00 in/hr0.0 mm/hr 0.00 in0.0 mm
03:35 AM 37.2°F2.9°C 31.0°F-0.6°C 78% 0.7 mph SE1.1 kmh SE 1.6 mph2.6 kmh 30.67 in1038.6 mb 0.00 in0.0 mm 0.00 in/hr0.0 mm/hr 0.00 in0.0 mm
03:30 AM 37.4°F3.0°C 32.7°F0.4°C 83% 0.7 mph SE1.1 kmh SE 1.6 mph2.6 kmh 30.66 in1038.3 mb 0.00 in0.0 mm 0.00 in/hr0.0 mm/hr 0.00 in0.0 mm
03:25 AM 37.4°F3.0°C 32.7°F0.4°C 83% Calm Calm -- 30.66 in1038.3 mb 0.00 in0.0 mm 0.00 in/hr0.0 mm/hr 0.00 in0.0 mm
03:20 AM 37.4°F3.0°C 32.7°F0.4°C 83% Calm Calm 1.6 mph2.6 kmh 30.66 in1038.3 mb 0.00 in0.0 mm 0.00 in/hr0.0 mm/hr 0.00 in0.0 mm
03:15 AM 37.4°F3.0°C 32.7°F0.4°C 83% 1.6 mph E2.6 kmh E 2.2 mph3.5 kmh 30.66 in1038.3 mb 0.00 in0.0 mm 0.00 in/hr0.0 mm/hr 0.00 in0.0 mm
03:10 AM 37.2°F2.9°C 31.3°F-0.4°C 79% 1.6 mph NE2.6 kmh NE 2.2 mph3.5 kmh 30.66 in1038.3 mb 0.00 in0.0 mm 0.00 in/hr0.0 mm/hr 0.00 in0.0 mm
03:05 AM 37.2°F2.9°C 31.3°F-0.4°C 79% 0.7 mph NE1.1 kmh NE 1.6 mph2.6 kmh 30.66 in1038.3 mb 0.00 in0.0 mm 0.00 in/hr0.0 mm/hr 0.00 in0.0 mm
03:00 AM 37.2°F2.9°C 31.3°F-0.4°C 79% 0.7 mph S1.1 kmh S 1.6 mph2.6 kmh 30.66 in1038.3 mb 0.00 in0.0 mm 0.00 in/hr0.0 mm/hr 0.00 in0.0 mm
02:55 AM 37.0°F2.8°C 31.1°F-0.5°C 79% 0.7 mph S1.1 kmh S 2.2 mph3.5 kmh 30.66 in1038.3 mb 0.00 in0.0 mm 0.00 in/hr0.0 mm/hr 0.00 in0.0 mm
02:50 AM 37.0°F2.8°C 31.1°F-0.5°C 79% 1.6 mph S2.6 kmh S 3.1 mph5.0 kmh 30.66 in1038.3 mb 0.00 in0.0 mm 0.00 in/hr0.0 mm/hr 0.00 in0.0 mm
02:45 AM 36.9°F2.7°C 31.0°F-0.6°C 79% 1.6 mph S2.6 kmh S 3.1 mph5.0 kmh 30.66 in1038.3 mb 0.00 in0.0 mm 0.00 in/hr0.0 mm/hr 0.00 in0.0 mm
02:40 AM 36.9°F2.7°C 31.0°F-0.6°C 79% 1.6 mph S2.6 kmh S 2.2 mph3.5 kmh 30.66 in1038.3 mb 0.00 in0.0 mm 0.00 in/hr0.0 mm/hr 0.00 in0.0 mm
02:35 AM 36.7°F2.6°C 30.5°F-0.8°C 78% 2.2 mph SSW3.5 kmh SSW 3.1 mph5.0 kmh 30.66 in1038.3 mb 0.00 in0.0 mm 0.00 in/hr0.0 mm/hr 0.00 in0.0 mm
02:30 AM 36.5°F2.5°C 30.3°F-0.9°C 78% 1.6 mph S2.6 kmh S 3.8 mph6.1 kmh 30.67 in1038.6 mb 0.00 in0.0 mm 0.00 in/hr0.0 mm/hr 0.00 in0.0 mm
02:25 AM 36.3°F2.4°C 30.1°F-1.1°C 78% 2.2 mph S3.5 kmh S 4.5 mph7.2 kmh 30.67 in1038.6 mb 0.00 in0.0 mm 0.00 in/hr0.0 mm/hr 0.00 in0.0 mm
02:20 AM 36.0°F2.2°C 29.8°F-1.2°C 78% 2.2 mph S3.5 kmh S 3.8 mph6.1 kmh 30.67 in1038.6 mb 0.00 in0.0 mm 0.00 in/hr0.0 mm/hr 0.00 in0.0 mm
02:15 AM 35.8°F2.1°C 29.3°F-1.5°C 77% 1.6 mph S2.6 kmh S 2.2 mph3.5 kmh 30.68 in1038.9 mb 0.00 in0.0 mm 0.00 in/hr0.0 mm/hr 0.00 in0.0 mm
02:10 AM 35.6°F2.0°C 29.1°F-1.6°C 77% 1.6 mph SW2.6 kmh SW 3.1 mph5.0 kmh 30.68 in1038.9 mb 0.00 in0.0 mm 0.00 in/hr0.0 mm/hr 0.00 in0.0 mm
02:05 AM 35.1°F1.7°C 28.6°F-1.9°C 77% 1.6 mph SSW2.6 kmh SSW 2.2 mph3.5 kmh 30.67 in1038.6 mb 0.00 in0.0 mm 0.00 in/hr0.0 mm/hr 0.00 in0.0 mm
02:00 AM 35.1°F1.7°C 28.6°F-1.9°C 77% 1.6 mph SSW2.6 kmh SSW 2.2 mph3.5 kmh 30.67 in1038.6 mb 0.00 in0.0 mm 0.00 in/hr0.0 mm/hr 0.00 in0.0 mm
01:55 AM 34.9°F1.6°C 28.4°F-2.0°C 77% 1.6 mph SW2.6 kmh SW 2.2 mph3.5 kmh 30.67 in1038.6 mb 0.00 in0.0 mm 0.00 in/hr0.0 mm/hr 0.00 in0.0 mm
01:50 AM 34.9°F1.6°C 28.1°F-2.2°C 76% 0.7 mph W1.1 kmh W 1.6 mph2.6 kmh 30.67 in1038.6 mb 0.00 in0.0 mm 0.00 in/hr0.0 mm/hr 0.00 in0.0 mm
01:45 AM 34.9°F1.6°C 28.1°F-2.2°C 76% 1.6 mph SW2.6 kmh SW 2.2 mph3.5 kmh 30.67 in1038.6 mb 0.00 in0.0 mm 0.00 in/hr0.0 mm/hr 0.00 in0.0 mm
01:40 AM 34.9°F1.6°C 28.1°F-2.2°C 76% 1.6 mph SW2.6 kmh SW 2.2 mph3.5 kmh 30.67 in1038.6 mb 0.00 in0.0 mm 0.00 in/hr0.0 mm/hr 0.00 in0.0 mm
01:35 AM 34.9°F1.6°C 28.1°F-2.2°C 76% 1.6 mph S2.6 kmh S 2.2 mph3.5 kmh 30.67 in1038.6 mb 0.00 in0.0 mm 0.00 in/hr0.0 mm/hr 0.00 in0.0 mm
01:30 AM 34.9°F1.6°C 28.1°F-2.2°C 76% 2.2 mph S3.5 kmh S 3.8 mph6.1 kmh 30.67 in1038.6 mb 0.00 in0.0 mm 0.00 in/hr0.0 mm/hr 0.00 in0.0 mm
01:25 AM 34.9°F1.6°C 28.1°F-2.2°C 76% 1.6 mph SW2.6 kmh SW 3.1 mph5.0 kmh 30.67 in1038.6 mb 0.00 in0.0 mm 0.00 in/hr0.0 mm/hr 0.00 in0.0 mm
01:20 AM 35.1°F1.7°C 28.3°F-2.1°C 76% 2.2 mph SW3.5 kmh SW 3.1 mph5.0 kmh 30.67 in1038.6 mb 0.00 in0.0 mm 0.00 in/hr0.0 mm/hr 0.00 in0.0 mm
01:15 AM 35.1°F1.7°C 28.0°F-2.2°C 75% 1.6 mph SW2.6 kmh SW 3.1 mph5.0 kmh 30.67 in1038.6 mb 0.00 in0.0 mm 0.00 in/hr0.0 mm/hr 0.00 in0.0 mm
01:10 AM 35.2°F1.8°C 28.1°F-2.2°C 75% 1.6 mph SE2.6 kmh SE 2.2 mph3.5 kmh 30.67 in1038.6 mb 0.00 in0.0 mm 0.00 in/hr0.0 mm/hr 0.00 in0.0 mm
01:05 AM 35.2°F1.8°C 28.1°F-2.2°C 75% 2.2 mph S3.5 kmh S 3.1 mph5.0 kmh 30.67 in1038.6 mb 0.00 in0.0 mm 0.00 in/hr0.0 mm/hr 0.00 in0.0 mm
01:00 AM 35.2°F1.8°C 28.1°F-2.2°C 75% 0.7 mph SW1.1 kmh SW 1.6 mph2.6 kmh 30.67 in1038.6 mb 0.00 in0.0 mm 0.00 in/hr0.0 mm/hr 0.00 in0.0 mm
12:55 AM 35.4°F1.9°C 28.3°F-2.1°C 75% 1.6 mph SW2.6 kmh SW 2.2 mph3.5 kmh 30.67 in1038.6 mb 0.00 in0.0 mm 0.00 in/hr0.0 mm/hr 0.00 in0.0 mm
12:50 AM 35.6°F2.0°C 28.1°F-2.2°C 74% 1.6 mph SW2.6 kmh SW 3.8 mph6.1 kmh 30.68 in1038.9 mb 0.00 in0.0 mm 0.00 in/hr0.0 mm/hr 0.00 in0.0 mm
12:45 AM 35.6°F2.0°C 28.1°F-2.2°C 74% 1.6 mph SW2.6 kmh SW 2.2 mph3.5 kmh 30.68 in1038.9 mb 0.00 in0.0 mm 0.00 in/hr0.0 mm/hr 0.00 in0.0 mm
12:40 AM 35.6°F2.0°C 28.1°F-2.2°C 74% 2.2 mph SW3.5 kmh SW 3.1 mph5.0 kmh 30.68 in1038.9 mb 0.00 in0.0 mm 0.00 in/hr0.0 mm/hr 0.00 in0.0 mm
12:35 AM 35.8°F2.1°C 28.0°F-2.2°C 73% 1.6 mph SW2.6 kmh SW 2.2 mph3.5 kmh 30.68 in1038.9 mb 0.00 in0.0 mm 0.00 in/hr0.0 mm/hr 0.00 in0.0 mm
12:30 AM 35.8°F2.1°C 28.0°F-2.2°C 73% 1.6 mph SW2.6 kmh SW 2.2 mph3.5 kmh 30.68 in1038.9 mb 0.00 in0.0 mm 0.00 in/hr0.0 mm/hr 0.00 in0.0 mm
12:25 AM 35.8°F2.1°C 28.0°F-2.2°C 73% 1.6 mph SW2.6 kmh SW 2.2 mph3.5 kmh 30.67 in1038.6 mb 0.00 in0.0 mm 0.00 in/hr0.0 mm/hr 0.00 in0.0 mm
12:20 AM 36.0°F2.2°C 27.8°F-2.3°C 72% 1.6 mph SW2.6 kmh SW 2.2 mph3.5 kmh 30.67 in1038.6 mb 0.00 in0.0 mm 0.00 in/hr0.0 mm/hr 0.00 in0.0 mm
12:15 AM 36.1°F2.3°C 28.0°F-2.2°C 72% 0.7 mph SW1.1 kmh SW 2.2 mph3.5 kmh 30.68 in1038.9 mb 0.00 in0.0 mm 0.00 in/hr0.0 mm/hr 0.00 in0.0 mm
12:10 AM 36.1°F2.3°C 28.0°F-2.2°C 72% 1.6 mph SW2.6 kmh SW 2.2 mph3.5 kmh 30.67 in1038.6 mb 0.00 in0.0 mm 0.00 in/hr0.0 mm/hr 0.00 in0.0 mm
12:05 AM 36.7°F2.6°C 28.5°F-1.9°C 72% 0.7 mph W1.1 kmh W 1.6 mph2.6 kmh 30.68 in1038.9 mb 0.00 in0.0 mm 0.00 in/hr0.0 mm/hr 0.00 in0.0 mm
12:00 AM 36.7°F2.6°C 28.5°F-1.9°C 72% 0.7 mph W1.1 kmh W 1.6 mph2.6 kmh 30.68 in1038.9 mb 0.00 in0.0 mm 0.00 in/hr0.0 mm/hr 0.00 in0.0 mm